createdAt,value
2023-04-27T00:01:12.439Z,3.92
2023-04-27T00:03:39.213Z,3.50
2023-04-27T00:06:05.834Z,3.38
2023-04-27T00:08:32.168Z,3.47
2023-04-27T00:10:58.628Z,3.47
2023-04-27T00:13:27.449Z,3.65
2023-04-27T00:15:54.269Z,3.33
2023-04-27T00:18:20.920Z,3.33
2023-04-27T00:20:47.353Z,3.47
2023-04-27T00:23:13.843Z,3.33
2023-04-27T00:25:40.381Z,3.30
2023-04-27T00:28:06.769Z,3.80
2023-04-27T00:30:33.126Z,3.78
2023-04-27T00:32:59.589Z,3.83
2023-04-27T00:35:26.067Z,4.50
2023-04-27T00:37:53.691Z,4.00
2023-04-27T00:40:22.997Z,4.22
2023-04-27T00:42:49.438Z,3.50
2023-04-27T00:45:16.028Z,3.85
2023-04-27T00:47:42.691Z,3.58
2023-04-27T00:50:10.503Z,3.35
2023-04-27T00:52:37.460Z,3.40
2023-04-27T00:55:04.905Z,3.53
2023-04-27T00:57:31.915Z,3.53
2023-04-27T01:00:00.011Z,3.45
2023-04-27T01:02:27.026Z,3.45
2023-04-27T01:04:54.026Z,3.58
2023-04-27T01:07:24.611Z,3.38
2023-04-27T01:09:51.266Z,3.63
2023-04-27T01:12:17.658Z,3.47
2023-04-27T01:14:43.992Z,3.75
2023-04-27T01:17:10.925Z,3.42
2023-04-27T01:19:38.202Z,3.30
2023-04-27T01:22:04.730Z,3.70
2023-04-27T01:24:31.192Z,3.10
2023-04-27T01:26:57.653Z,3.22
2023-04-27T01:29:24.158Z,3.15
2023-04-27T01:31:50.566Z,3.40
2023-04-27T01:34:17.092Z,3.85
2023-04-27T01:36:43.514Z,3.90
2023-04-27T01:39:10.073Z,3.40
2023-04-27T01:41:36.924Z,3.58
2023-04-27T01:44:06.677Z,3.70
2023-04-27T01:46:35.690Z,3.88
2023-04-27T01:49:02.169Z,3.60
2023-04-27T01:51:28.635Z,3.55
2023-04-27T01:53:55.196Z,3.67
2023-04-27T01:56:21.688Z,3.50
2023-04-27T01:58:48.110Z,3.60
2023-04-27T02:01:14.681Z,3.70
2023-04-27T02:03:41.921Z,4.00
2023-04-27T02:06:08.548Z,3.25
2023-04-27T02:08:35.092Z,3.10
2023-04-27T02:11:01.560Z,3.55
2023-04-27T02:13:28.011Z,3.40
2023-04-27T02:15:56.111Z,3.35
2023-04-27T02:18:22.648Z,3.28
2023-04-27T02:20:49.113Z,3.60
2023-04-27T02:23:15.603Z,3.72
2023-04-27T02:25:46.536Z,4.32
2023-04-27T02:28:14.091Z,3.80
2023-04-27T02:30:41.090Z,3.45
2023-04-27T02:33:07.749Z,3.42
2023-04-27T02:35:34.378Z,3.70
2023-04-27T02:38:00.873Z,3.58
2023-04-27T02:40:27.373Z,3.25
2023-04-27T02:42:53.829Z,3.88
2023-04-27T02:45:20.396Z,3.38
2023-04-27T02:47:46.873Z,3.95
2023-04-27T02:50:13.834Z,3.67
2023-04-27T02:52:40.383Z,3.30
2023-04-27T02:55:07.258Z,3.35
2023-04-27T02:57:33.722Z,3.67
2023-04-27T03:02:31.609Z,3.78
2023-04-27T03:04:59.223Z,3.50
2023-04-27T03:07:25.796Z,3.40
2023-04-27T03:09:52.152Z,3.33
2023-04-27T03:12:18.676Z,3.20
2023-04-27T03:14:45.026Z,3.30
2023-04-27T03:17:11.560Z,3.20
2023-04-27T03:19:37.916Z,3.63
2023-04-27T03:22:04.303Z,3.45
2023-04-27T03:24:31.045Z,3.50
2023-04-27T03:26:57.467Z,3.20
2023-04-27T03:29:23.887Z,3.40
2023-04-27T03:31:50.292Z,3.50
2023-04-27T03:34:16.828Z,3.33
2023-04-27T03:36:43.438Z,4.13
2023-04-27T03:39:09.878Z,3.45
2023-04-27T03:41:36.285Z,3.17
2023-04-27T03:44:02.689Z,3.50
2023-04-27T03:46:29.176Z,3.70
2023-04-27T03:48:55.832Z,3.80
2023-04-27T03:51:22.264Z,3.85
2023-04-27T03:53:48.732Z,3.47
2023-04-27T03:56:16.262Z,3.70
2023-04-27T03:58:42.624Z,3.47
2023-04-27T04:01:10.205Z,4.03
2023-04-27T04:03:37.120Z,3.55
2023-04-27T04:06:06.525Z,3.80
2023-04-27T04:08:34.147Z,3.53
2023-04-27T04:11:00.861Z,4.00
2023-04-27T04:13:27.306Z,3.55
2023-04-27T04:16:06.964Z,3.78
2023-04-27T04:18:33.846Z,4.15
2023-04-27T04:21:00.604Z,4.10
2023-04-27T04:23:27.836Z,4.10
2023-04-27T04:25:56.309Z,3.97
2023-04-27T04:28:23.143Z,4.10
2023-04-27T04:30:49.879Z,4.10
2023-04-27T04:33:17.034Z,4.50
2023-04-27T04:35:43.606Z,4.47
2023-04-27T04:38:12.913Z,3.95
2023-04-27T04:40:39.492Z,4.07
2023-04-27T04:43:06.489Z,4.40
2023-04-27T04:45:32.852Z,4.20
2023-04-27T04:48:02.182Z,4.85
2023-04-27T04:50:29.039Z,4.78
2023-04-27T04:52:55.868Z,4.18
2023-04-27T04:55:22.240Z,4.30
2023-04-27T04:57:48.595Z,3.92
2023-04-27T05:00:15.040Z,3.97
2023-04-27T05:02:41.632Z,3.90
2023-04-27T05:05:08.775Z,4.05
2023-04-27T05:07:35.518Z,4.00
2023-04-27T05:10:01.969Z,4.03
2023-04-27T05:12:28.331Z,4.60
2023-04-27T05:14:55.059Z,4.72
2023-04-27T05:17:21.454Z,4.85
2023-04-27T05:19:47.835Z,5.80
2023-04-27T05:22:14.189Z,4.72
2023-04-27T05:24:40.903Z,4.32
2023-04-27T05:27:07.470Z,4.45
2023-04-27T05:29:33.828Z,4.65
2023-04-27T05:32:00.476Z,3.90
2023-04-27T05:34:29.454Z,3.92
2023-04-27T05:36:55.842Z,4.13
2023-04-27T05:39:22.184Z,4.05
2023-04-27T05:41:48.557Z,3.90
2023-04-27T05:44:15.113Z,3.72
2023-04-27T05:46:41.563Z,4.00
2023-04-27T05:49:10.489Z,3.92
2023-04-27T05:51:38.380Z,4.38
2023-04-27T05:54:04.924Z,3.85
2023-04-27T05:56:31.320Z,3.63
2023-04-27T05:58:57.714Z,3.72
2023-04-27T06:01:24.317Z,3.63
2023-04-27T06:03:50.752Z,3.70
2023-04-27T06:06:17.412Z,4.18
2023-04-27T06:08:43.834Z,4.28
2023-04-27T06:11:10.325Z,4.15
2023-04-27T06:13:36.865Z,4.47
2023-04-27T06:16:03.395Z,5.10
2023-04-27T06:18:29.819Z,4.55
2023-04-27T06:21:02.322Z,4.75
2023-04-27T06:23:28.942Z,5.53
2023-04-27T06:25:55.457Z,5.30
2023-04-27T06:28:21.810Z,4.80
2023-04-27T06:30:48.160Z,4.40
2023-04-27T06:33:14.564Z,4.60
2023-04-27T06:35:41.240Z,5.32
2023-04-27T06:38:08.046Z,4.82
2023-04-27T06:40:35.274Z,5.10
2023-04-27T06:43:01.833Z,4.95
2023-04-27T06:45:28.240Z,4.63
2023-04-27T06:47:54.641Z,4.70
2023-04-27T06:50:21.203Z,4.80
2023-04-27T06:52:47.619Z,4.60
2023-04-27T06:55:14.025Z,4.53
2023-04-27T06:57:40.489Z,5.20
2023-04-27T07:00:07.231Z,4.85
2023-04-27T07:02:33.709Z,4.82
2023-04-27T07:05:00.277Z,4.60
2023-04-27T07:07:26.877Z,5.38
2023-04-27T07:09:53.372Z,5.18
2023-04-27T07:12:19.806Z,4.80
2023-04-27T07:14:46.227Z,5.03
2023-04-27T07:17:12.589Z,4.53
2023-04-27T07:19:38.975Z,4.60
2023-04-27T07:22:05.413Z,4.18
2023-04-27T07:24:31.906Z,4.00
2023-04-27T07:26:59.275Z,4.63
2023-04-27T07:29:28.360Z,4.00
2023-04-27T07:31:55.786Z,4.53
2023-04-27T07:34:22.564Z,4.78
2023-04-27T07:36:49.018Z,4.30
2023-04-27T07:39:15.853Z,4.80
2023-04-27T07:41:42.448Z,4.78
2023-04-27T07:44:09.282Z,4.78
2023-04-27T07:46:35.708Z,4.32
2023-04-27T07:49:02.557Z,4.30
2023-04-27T07:51:29.249Z,4.82
2023-04-27T07:53:55.694Z,4.38
2023-04-27T07:56:22.246Z,3.95
2023-04-27T07:58:48.637Z,3.80
2023-04-27T08:01:15.042Z,5.43
2023-04-27T08:03:44.050Z,4.25
2023-04-27T08:06:11.335Z,4.65
2023-04-27T08:08:37.893Z,4.38
2023-04-27T08:11:04.389Z,4.30
2023-04-27T08:13:30.921Z,4.03
2023-04-27T08:15:59.245Z,4.35
2023-04-27T08:18:26.252Z,4.03
2023-04-27T08:20:52.860Z,4.07
2023-04-27T08:23:19.326Z,3.85
2023-04-27T08:25:45.826Z,4.30
2023-04-27T08:28:13.003Z,4.50
2023-04-27T08:30:39.457Z,3.72
2023-04-27T08:33:08.887Z,3.90
2023-04-27T08:35:35.505Z,3.75
2023-04-27T08:38:02.065Z,3.58
2023-04-27T08:40:28.691Z,3.90
2023-04-27T08:42:56.404Z,3.17
2023-04-27T08:45:24.197Z,3.40
2023-04-27T08:47:53.408Z,3.63
2023-04-27T08:50:20.217Z,3.78
2023-04-27T08:52:47.281Z,3.10
2023-04-27T08:55:16.523Z,3.22
2023-04-27T08:57:53.705Z,3.03
2023-04-27T09:00:20.440Z,3.03
2023-04-27T09:02:47.708Z,3.00
2023-04-27T09:05:18.399Z,3.22
2023-04-27T09:07:57.081Z,2.85
2023-04-27T09:10:23.898Z,3.00
2023-04-27T09:13:00.184Z,2.60
2023-04-27T09:15:27.523Z,2.67
2023-04-27T09:17:59.730Z,3.17
2023-04-27T09:20:27.457Z,2.88
2023-04-27T09:22:58.561Z,3.10
2023-04-27T09:25:34.452Z,2.65
2023-04-27T09:28:03.627Z,3.15
2023-04-27T09:30:30.493Z,3.05
2023-04-27T09:32:58.017Z,3.30
2023-04-27T09:35:32.014Z,2.80
2023-04-27T09:38:01.576Z,3.33
2023-04-27T09:40:30.698Z,3.00
2023-04-27T09:42:58.036Z,2.83
2023-04-27T09:45:27.391Z,3.28
2023-04-27T09:47:54.029Z,3.35
2023-04-27T09:50:21.971Z,2.88
2023-04-27T09:52:50.921Z,2.97
2023-04-27T09:55:24.585Z,2.83
2023-04-27T10:00:29.927Z,2.85
2023-04-27T10:03:02.835Z,2.95
2023-04-27T10:05:42.963Z,2.80
2023-04-27T10:08:09.853Z,3.00
2023-04-27T10:10:43.244Z,3.20
2023-04-27T10:13:20.149Z,3.45
2023-04-27T10:15:46.655Z,3.30
2023-04-27T10:18:13.157Z,2.80
2023-04-27T10:20:40.604Z,3.25
2023-04-27T10:23:07.064Z,3.50
2023-04-27T10:25:40.835Z,3.20
2023-04-27T10:28:10.242Z,3.10
2023-04-27T10:30:37.747Z,3.00
2023-04-27T10:33:10.906Z,3.28
2023-04-27T10:35:37.343Z,3.28
2023-04-27T10:38:07.061Z,3.40
2023-04-27T10:40:36.330Z,3.03
2023-04-27T10:43:10.141Z,2.72
2023-04-27T10:45:36.542Z,2.42
2023-04-27T10:48:03.029Z,3.38
2023-04-27T10:50:29.546Z,2.88
2023-04-27T10:53:01.092Z,2.90
2023-04-27T10:55:27.555Z,2.97
2023-04-27T10:57:54.704Z,3.20
2023-04-27T11:00:25.349Z,2.80
2023-04-27T11:02:52.392Z,3.05
2023-04-27T11:05:19.726Z,2.90
2023-04-27T11:07:47.906Z,2.65
2023-04-27T11:10:19.046Z,2.90
2023-04-27T11:12:45.765Z,2.92
2023-04-27T11:15:12.622Z,3.00
2023-04-27T11:17:39.028Z,2.78
2023-04-27T11:20:08.553Z,2.63
2023-04-27T11:22:43.206Z,2.58
2023-04-27T11:25:09.627Z,2.30
2023-04-27T11:27:37.434Z,2.67
2023-04-27T11:30:07.481Z,2.50
2023-04-27T11:32:34.003Z,2.50
2023-04-27T11:35:00.548Z,2.40
2023-04-27T11:37:27.681Z,2.78
2023-04-27T11:39:54.817Z,2.67
2023-04-27T11:42:28.453Z,2.60
2023-04-27T11:44:59.263Z,2.60
2023-04-27T11:47:30.111Z,2.58
2023-04-27T11:49:58.350Z,2.47
2023-04-27T11:52:29.078Z,2.45
2023-04-27T11:54:58.283Z,2.55
2023-04-27T11:57:31.288Z,2.30
2023-04-27T12:00:00.196Z,2.45
2023-04-27T12:02:31.453Z,2.60
2023-04-27T12:04:59.284Z,2.55
2023-04-27T12:07:25.851Z,2.80
2023-04-27T12:09:52.205Z,3.00
2023-04-27T12:12:19.209Z,2.60
2023-04-27T12:14:47.953Z,2.28
2023-04-27T12:17:16.713Z,2.90
2023-04-27T12:19:43.178Z,2.53
2023-04-27T12:22:11.245Z,2.90
2023-04-27T12:24:37.697Z,2.97
2023-04-27T12:27:04.526Z,2.47
2023-04-27T12:29:32.088Z,2.70
2023-04-27T12:31:58.950Z,2.90
2023-04-27T12:34:25.865Z,2.83
2023-04-27T12:36:52.369Z,2.65
2023-04-27T12:39:22.733Z,2.95
2023-04-27T12:41:49.783Z,2.90
2023-04-27T12:44:17.020Z,2.40
2023-04-27T12:46:44.495Z,2.45
2023-04-27T12:49:14.281Z,3.13
2023-04-27T12:51:41.327Z,3.20
2023-04-27T12:54:11.411Z,3.05
2023-04-27T12:56:40.331Z,2.80
2023-04-27T12:59:06.810Z,3.08
2023-04-27T13:01:33.776Z,2.92
2023-04-27T13:04:02.214Z,3.30
2023-04-27T13:06:29.451Z,3.30
2023-04-27T13:08:56.063Z,2.78
2023-04-27T13:11:23.274Z,2.97
2023-04-27T13:13:49.673Z,3.40
2023-04-27T13:16:16.491Z,3.33
2023-04-27T13:18:49.337Z,3.05
2023-04-27T13:21:16.624Z,3.20
2023-04-27T13:23:43.003Z,3.38
2023-04-27T13:26:09.419Z,3.10
2023-04-27T13:28:35.886Z,3.70
2023-04-27T13:31:02.293Z,3.22
2023-04-27T13:33:28.748Z,3.40
2023-04-27T13:35:55.146Z,3.05
2023-04-27T13:38:21.608Z,3.25
2023-04-27T13:40:48.120Z,3.33
2023-04-27T13:43:14.495Z,3.13
2023-04-27T13:45:42.506Z,2.97
2023-04-27T13:48:08.931Z,3.22
2023-04-27T13:50:35.461Z,2.45
2023-04-27T13:53:01.965Z,2.70
2023-04-27T13:55:28.387Z,2.90
2023-04-27T13:57:54.789Z,2.90
2023-04-27T14:00:21.557Z,3.20
2023-04-27T14:02:47.996Z,3.08
2023-04-27T14:05:14.543Z,3.15
2023-04-27T14:07:40.995Z,2.92
2023-04-27T14:10:07.726Z,3.50
2023-04-27T14:12:34.195Z,3.17
2023-04-27T14:15:00.691Z,3.38
2023-04-27T14:17:29.359Z,2.95
2023-04-27T14:19:55.790Z,3.35
2023-04-27T14:22:22.238Z,3.00
2023-04-27T14:24:48.673Z,2.97
2023-04-27T14:27:15.958Z,3.53
2023-04-27T14:29:42.333Z,3.50
2023-04-27T14:32:08.912Z,3.42
2023-04-27T14:34:35.474Z,3.65
2023-04-27T14:37:01.823Z,3.50
2023-04-27T14:39:28.183Z,3.67
2023-04-27T14:41:54.629Z,3.60
2023-04-27T14:44:21.104Z,3.70
2023-04-27T14:46:47.546Z,3.38
2023-04-27T14:49:14.314Z,3.13
2023-04-27T14:51:43.440Z,3.47
2023-04-27T14:54:13.261Z,3.30
2023-04-27T14:56:39.629Z,3.20
2023-04-27T14:59:06.097Z,3.20
2023-04-27T15:01:36.370Z,3.25
2023-04-27T15:04:03.055Z,3.63
2023-04-27T15:06:33.122Z,3.40
2023-04-27T15:08:59.835Z,3.22
2023-04-27T15:11:29.164Z,3.70
2023-04-27T15:13:55.747Z,3.22
2023-04-27T15:16:25.006Z,3.63
2023-04-27T15:18:51.593Z,3.10
2023-04-27T15:21:18.004Z,2.97
2023-04-27T15:23:44.410Z,2.90
2023-04-27T15:26:11.021Z,3.03
2023-04-27T15:28:38.046Z,3.28
2023-04-27T15:31:04.440Z,3.10
2023-04-27T15:33:30.940Z,3.47
2023-04-27T15:35:59.005Z,3.75
2023-04-27T15:38:26.242Z,3.70
2023-04-27T15:40:52.825Z,3.67
2023-04-27T15:43:19.235Z,3.10
2023-04-27T15:45:45.634Z,3.30
2023-04-27T15:48:12.253Z,3.67
2023-04-27T15:50:38.718Z,3.30
2023-04-27T15:53:05.116Z,3.90
2023-04-27T15:55:31.618Z,3.33
2023-04-27T15:58:00.218Z,3.17
2023-04-27T16:00:26.672Z,2.97
2023-04-27T16:02:53.290Z,3.40
2023-04-27T16:05:20.127Z,3.17
2023-04-27T16:07:46.671Z,3.15
2023-04-27T16:10:13.203Z,3.13
2023-04-27T16:12:39.874Z,3.20
2023-04-27T16:15:08.501Z,3.03
2023-04-27T16:17:36.688Z,3.22
2023-04-27T16:20:06.799Z,3.00
2023-04-27T16:22:34.033Z,3.20
2023-04-27T16:25:00.590Z,3.22
2023-04-27T16:27:26.997Z,2.92
2023-04-27T16:29:56.018Z,3.10
2023-04-27T16:32:22.647Z,2.97
2023-04-27T16:34:49.496Z,2.80
2023-04-27T16:37:15.928Z,3.58
2023-04-27T16:39:42.301Z,2.95
2023-04-27T16:42:09.822Z,2.72
2023-04-27T16:44:37.827Z,3.20
2023-04-27T16:47:04.279Z,3.60
2023-04-27T16:49:30.747Z,3.53
2023-04-27T16:51:57.177Z,3.22
2023-04-27T16:54:26.202Z,3.40
2023-04-27T16:56:54.586Z,3.90
2023-04-27T16:59:24.182Z,3.95
2023-04-27T17:01:51.275Z,3.80
2023-04-27T17:04:17.988Z,3.33
2023-04-27T17:06:47.036Z,3.30
2023-04-27T17:09:14.166Z,3.20
2023-04-27T17:11:41.009Z,3.20
2023-04-27T17:14:07.397Z,4.93
2023-04-27T17:16:36.329Z,3.65
2023-04-27T17:19:02.724Z,3.65
2023-04-27T17:21:29.083Z,2.70
2023-04-27T17:23:55.646Z,2.47
2023-04-27T17:26:22.659Z,2.80
2023-04-27T17:28:49.221Z,2.85
2023-04-27T17:31:17.473Z,2.40
2023-04-27T17:33:43.911Z,2.33
2023-04-27T17:36:10.937Z,2.60
2023-04-27T17:38:37.647Z,2.50
2023-04-27T17:41:04.121Z,1.95
2023-04-27T17:43:30.527Z,2.05
2023-04-27T17:45:57.025Z,2.55
2023-04-27T17:48:26.372Z,1.95
2023-04-27T17:50:55.816Z,2.50
2023-04-27T17:53:22.151Z,5.18
2023-04-27T17:55:48.673Z,7.22
2023-04-27T17:58:16.969Z,14.95
2023-04-27T18:00:43.914Z,5.65
2023-04-27T18:03:11.535Z,3.25
2023-04-27T18:05:38.251Z,2.35
2023-04-27T18:08:04.709Z,2.78
2023-04-27T18:10:31.341Z,2.40
2023-04-27T18:12:57.858Z,2.97
2023-04-27T18:15:24.342Z,2.55
2023-04-27T18:17:50.957Z,2.00
2023-04-27T18:20:17.524Z,2.70
2023-04-27T18:22:43.882Z,2.20
2023-04-27T18:25:10.532Z,2.53
2023-04-27T18:27:40.104Z,2.22
2023-04-27T18:30:08.088Z,2.30
2023-04-27T18:32:34.951Z,1.90
2023-04-27T18:35:02.388Z,2.20
2023-04-27T18:37:31.500Z,2.00
2023-04-27T18:40:00.374Z,2.15
2023-04-27T18:42:26.846Z,2.30
2023-04-27T18:45:00.514Z,2.22
2023-04-27T18:47:27.335Z,2.25
2023-04-27T18:49:53.789Z,2.20
2023-04-27T18:52:22.823Z,2.47
2023-04-27T18:54:49.274Z,2.13
2023-04-27T18:57:15.671Z,2.45
2023-04-27T18:59:42.110Z,2.88
2023-04-27T19:02:08.796Z,2.97
2023-04-27T19:04:37.827Z,3.05
2023-04-27T19:07:04.511Z,3.03
2023-04-27T19:09:31.054Z,3.35
2023-04-27T19:12:02.768Z,3.47
2023-04-27T19:14:33.610Z,5.65
2023-04-27T19:17:00.059Z,5.00
2023-04-27T19:19:26.745Z,5.40
2023-04-27T19:21:53.461Z,6.40
2023-04-27T19:24:19.851Z,6.93
2023-04-27T19:26:47.202Z,6.40
2023-04-27T19:29:16.807Z,5.60
2023-04-27T19:31:43.574Z,4.50
2023-04-27T19:34:10.018Z,5.35
2023-04-27T19:36:36.395Z,6.68
2023-04-27T19:39:05.179Z,6.70
2023-04-27T19:41:31.592Z,6.97
2023-04-27T19:44:00.529Z,6.72
2023-04-27T19:46:26.977Z,6.60
2023-04-27T19:48:53.553Z,5.43
2023-04-27T19:51:19.936Z,4.60
2023-04-27T19:53:46.413Z,3.38
2023-04-27T19:56:12.855Z,4.63
2023-04-27T19:58:39.343Z,8.38
2023-04-27T20:01:06.235Z,9.98
2023-04-27T20:03:32.948Z,8.00
2023-04-27T20:05:59.696Z,6.45
2023-04-27T20:08:26.367Z,7.05
2023-04-27T20:10:52.946Z,6.95
2023-04-27T20:13:21.568Z,7.15
2023-04-27T20:15:48.079Z,6.28
2023-04-27T20:18:14.537Z,6.00
2023-04-27T20:20:42.019Z,6.10
2023-04-27T20:23:08.427Z,5.47
2023-04-27T20:25:34.898Z,5.47
2023-04-27T20:28:01.447Z,5.32
2023-04-27T20:30:28.517Z,5.10
2023-04-27T20:32:56.433Z,4.30
2023-04-27T20:35:24.083Z,4.75
2023-04-27T20:37:53.822Z,6.78
2023-04-27T20:40:20.296Z,6.63
2023-04-27T20:42:49.246Z,7.57
2023-04-27T20:45:16.159Z,3.60
2023-04-27T20:47:42.580Z,3.13
2023-04-27T20:50:09.117Z,3.30
2023-04-27T20:52:38.027Z,4.10
2023-04-27T20:55:05.021Z,3.95
2023-04-27T20:57:31.465Z,3.33
2023-04-27T21:00:00.321Z,3.25
2023-04-27T21:02:26.809Z,3.15
2023-04-27T21:04:53.306Z,3.97
2023-04-27T21:07:19.752Z,3.80
2023-04-27T21:09:48.581Z,4.28
2023-04-27T21:12:17.158Z,6.38
2023-04-27T21:14:43.832Z,6.00
2023-04-27T21:17:10.389Z,4.97
2023-04-27T21:19:36.920Z,4.28
2023-04-27T21:22:03.362Z,3.40
2023-04-27T21:24:29.863Z,3.17
2023-04-27T21:26:56.314Z,3.60
2023-04-27T21:29:22.738Z,3.20
2023-04-27T21:31:49.136Z,2.88
2023-04-27T21:34:15.762Z,2.70
2023-04-27T21:36:42.500Z,3.10
2023-04-27T21:39:08.842Z,3.22
2023-04-27T21:41:35.751Z,3.08
2023-04-27T21:44:02.170Z,3.40
2023-04-27T21:46:28.653Z,3.28
2023-04-27T21:48:55.359Z,3.08
2023-04-27T21:51:21.759Z,2.67
2023-04-27T21:53:48.162Z,2.90
2023-04-27T21:56:14.513Z,3.17
2023-04-27T21:58:41.081Z,2.88
2023-04-27T22:01:07.521Z,3.03
2023-04-27T22:03:34.012Z,3.42
2023-04-27T22:06:00.592Z,2.50
2023-04-27T22:08:27.039Z,2.95
2023-04-27T22:10:53.535Z,3.28
2023-04-27T22:13:20.120Z,3.38
2023-04-27T22:15:46.900Z,2.60
2023-04-27T22:18:14.545Z,3.08
2023-04-27T22:20:41.258Z,3.20
2023-04-27T22:23:07.730Z,3.10
2023-04-27T22:25:34.088Z,2.70
2023-04-27T22:28:01.541Z,2.80
2023-04-27T22:30:28.569Z,2.90
2023-04-27T22:32:55.608Z,2.78
2023-04-27T22:35:27.099Z,3.17
2023-04-27T22:37:57.686Z,3.15
2023-04-27T22:40:24.582Z,2.90
2023-04-27T22:42:51.355Z,4.00
2023-04-27T22:45:17.792Z,3.22
2023-04-27T22:47:45.675Z,3.10
2023-04-27T22:50:12.461Z,3.30
2023-04-27T22:52:42.161Z,3.20
2023-04-27T22:55:09.296Z,3.00
2023-04-27T22:57:35.832Z,2.95
2023-04-27T23:00:05.446Z,3.13
2023-04-27T23:02:32.112Z,3.10
2023-04-27T23:05:01.788Z,3.20
2023-04-27T23:07:28.566Z,3.10
2023-04-27T23:09:55.022Z,3.33
2023-04-27T23:12:22.031Z,3.47
2023-04-27T23:14:48.850Z,2.80
2023-04-27T23:17:15.468Z,3.25
2023-04-27T23:19:44.325Z,2.90
2023-04-27T23:22:10.783Z,3.35
2023-04-27T23:24:37.164Z,3.45
2023-04-27T23:27:03.804Z,3.08
2023-04-27T23:29:30.548Z,2.97
2023-04-27T23:32:01.266Z,3.35
2023-04-27T23:34:27.609Z,2.80
2023-04-27T23:36:53.938Z,3.05
2023-04-27T23:39:20.630Z,3.95
2023-04-27T23:41:46.983Z,3.50
2023-04-27T23:44:15.965Z,3.35
2023-04-27T23:46:42.761Z,3.38
2023-04-27T23:49:09.260Z,3.20
2023-04-27T23:51:38.168Z,2.90
2023-04-27T23:54:04.640Z,3.20
2023-04-27T23:56:31.031Z,3.00
2023-04-27T23:58:57.386Z,3.35
